createdAt,value
2019-03-22T00:00:57.187Z,32.86
2019-03-22T00:01:57.147Z,31.05
2019-03-22T00:02:57.111Z,30.30
2019-03-22T00:03:57.073Z,27.16
2019-03-22T00:04:57.028Z,26.88
2019-03-22T00:05:56.991Z,25.45
2019-03-22T00:06:56.960Z,25.55
2019-03-22T00:07:56.905Z,23.93
2019-03-22T00:08:56.868Z,24.98
2019-03-22T00:09:56.828Z,25.45
2019-03-22T00:10:56.789Z,25.26
2019-03-22T00:11:56.745Z,23.84
2019-03-22T00:12:56.704Z,24.04
2019-03-22T00:13:56.665Z,23.00
2019-03-22T00:14:56.624Z,22.33
2019-03-22T00:15:56.589Z,22.14
2019-03-22T00:16:56.545Z,21.76
2019-03-22T00:17:56.510Z,22.42
2019-03-22T00:18:56.474Z,23.19
2019-03-22T00:19:56.422Z,23.94
2019-03-22T00:20:56.382Z,23.47
2019-03-22T00:21:56.342Z,22.71
2019-03-22T00:22:56.305Z,22.24
2019-03-22T00:23:56.265Z,21.86
2019-03-22T00:24:56.222Z,22.05
2019-03-22T00:25:56.180Z,21.67
2019-03-22T00:26:56.138Z,22.52
2019-03-22T00:27:56.105Z,22.80
2019-03-22T00:28:56.062Z,25.09
2019-03-22T00:29:56.021Z,26.04
2019-03-22T00:31:04.638Z,26.23
2019-03-22T00:33:00.380Z,27.18
2019-03-22T00:34:00.314Z,28.70
2019-03-22T00:35:00.420Z,29.95
2019-03-22T00:36:00.238Z,30.60
2019-03-22T00:37:00.200Z,29.85
2019-03-22T00:38:00.219Z,29.95
2019-03-22T00:39:00.117Z,29.19
2019-03-22T00:40:00.073Z,29.47
2019-03-22T00:41:00.032Z,30.80
2019-03-22T00:42:00.006Z,30.99
2019-03-22T00:42:59.953Z,30.99
2019-03-22T00:43:59.911Z,31.47
2019-03-22T00:44:59.871Z,31.18
2019-03-22T00:45:59.831Z,29.75
2019-03-22T00:46:59.793Z,28.33
2019-03-22T00:47:59.752Z,29.28
2019-03-22T00:48:59.719Z,29.57
2019-03-22T00:49:59.673Z,29.93
2019-03-22T00:50:59.630Z,30.62
2019-03-22T00:51:59.589Z,30.90
2019-03-22T00:52:59.548Z,32.90
2019-03-22T00:53:59.506Z,33.26
2019-03-22T00:54:59.469Z,34.78
2019-03-22T00:55:59.428Z,34.69
2019-03-22T00:56:59.391Z,34.40
2019-03-22T00:57:59.345Z,34.02
2019-03-22T00:58:59.304Z,34.88
2019-03-22T00:59:59.267Z,36.11
2019-03-22T01:00:59.227Z,33.17
2019-03-22T01:01:59.191Z,32.97
2019-03-22T01:02:59.144Z,32.97
2019-03-22T01:03:59.103Z,31.93
2019-03-22T01:04:59.060Z,31.45
2019-03-22T01:05:59.019Z,30.69
2019-03-22T01:06:58.981Z,31.74
2019-03-22T01:07:58.942Z,32.97
2019-03-22T01:08:58.905Z,32.97
2019-03-22T01:09:58.865Z,33.73
2019-03-22T01:10:58.821Z,33.73
2019-03-22T01:11:58.778Z,32.97
2019-03-22T01:12:58.739Z,31.84
2019-03-22T01:13:58.703Z,31.64
2019-03-22T01:14:58.659Z,31.84
2019-03-22T01:15:58.618Z,32.97
2019-03-22T01:16:58.574Z,35.06
2019-03-22T01:17:58.534Z,35.92
2019-03-22T01:18:58.497Z,36.96
2019-03-22T01:19:58.456Z,36.96
2019-03-22T01:20:58.419Z,36.02
2019-03-22T01:21:58.378Z,36.68
2019-03-22T01:22:58.337Z,37.73
2019-03-22T01:23:59.982Z,37.82
2019-03-22T01:24:58.251Z,36.77
2019-03-22T01:25:58.213Z,36.68
2019-03-22T01:26:58.170Z,35.35
2019-03-22T01:27:58.132Z,35.35
2019-03-22T01:28:58.096Z,35.35
2019-03-22T01:29:58.048Z,34.21
2019-03-22T01:30:58.008Z,33.83
2019-03-22T01:31:57.970Z,33.92
2019-03-22T01:32:57.932Z,33.45
2019-03-22T01:33:57.891Z,33.83
2019-03-22T01:34:57.850Z,33.83
2019-03-22T01:35:57.805Z,33.64
2019-03-22T01:36:57.764Z,33.64
2019-03-22T01:37:57.723Z,34.21
2019-03-22T01:38:57.684Z,34.59
2019-03-22T01:39:57.645Z,35.16
2019-03-22T01:40:57.606Z,35.73
2019-03-22T01:41:57.564Z,34.88
2019-03-22T01:42:57.528Z,34.50
2019-03-22T01:43:57.482Z,33.83
2019-03-22T01:44:57.438Z,32.12
2019-03-22T01:45:57.405Z,31.74
2019-03-22T01:46:57.360Z,30.88
2019-03-22T01:47:57.324Z,32.12
2019-03-22T01:48:57.276Z,32.12
2019-03-22T01:49:57.235Z,32.21
2019-03-22T01:50:57.195Z,33.83
2019-03-22T01:51:57.157Z,35.16
2019-03-22T01:52:57.118Z,34.59
2019-03-22T01:53:57.084Z,33.73
2019-03-22T01:54:57.035Z,33.07
2019-03-22T01:55:56.992Z,33.73
2019-03-22T01:56:56.951Z,35.06
2019-03-22T01:57:56.910Z,34.88
2019-03-22T01:58:56.927Z,35.16
2019-03-22T01:59:56.834Z,36.02
2019-03-22T02:00:56.793Z,37.35
2019-03-22T02:01:56.748Z,37.35
2019-03-22T02:02:56.730Z,37.54
2019-03-22T02:03:56.670Z,38.20
2019-03-22T02:04:56.631Z,38.70
2019-03-22T02:05:56.592Z,39.72
2019-03-22T02:06:56.546Z,41.43
2019-03-22T02:07:56.506Z,42.12
2019-03-22T02:08:56.463Z,43.16
2019-03-22T02:09:56.423Z,43.35
2019-03-22T02:10:56.381Z,43.64
2019-03-22T02:11:56.344Z,43.64
2019-03-22T02:12:56.305Z,43.64
2019-03-22T02:13:56.265Z,44.12
2019-03-22T02:14:56.221Z,43.71
2019-03-22T02:15:56.180Z,44.49
2019-03-22T02:16:56.138Z,44.21
2019-03-22T02:17:56.102Z,44.21
2019-03-22T02:18:56.061Z,43.52
2019-03-22T02:19:56.016Z,43.52
2019-03-22T02:20:55.974Z,42.95
2019-03-22T02:21:55.934Z,41.81
2019-03-22T02:22:55.894Z,41.14
2019-03-22T02:23:55.858Z,40.01
2019-03-22T02:24:55.817Z,41.24
2019-03-22T02:25:55.777Z,41.43
2019-03-22T02:26:55.735Z,41.72
2019-03-22T02:28:03.815Z,42.00
2019-03-22T02:28:55.649Z,42.10
2019-03-22T02:29:55.610Z,43.52
2019-03-22T02:30:55.568Z,43.62
2019-03-22T02:31:55.535Z,42.47
2019-03-22T02:32:55.490Z,42.38
2019-03-22T02:33:55.568Z,44.09
2019-03-22T02:34:55.412Z,43.71
2019-03-22T02:35:55.371Z,43.71
2019-03-22T02:36:55.329Z,43.14
2019-03-22T02:37:55.287Z,45.33
2019-03-22T02:38:55.254Z,46.00
2019-03-22T02:39:55.203Z,46.09
2019-03-22T02:40:55.166Z,46.00
2019-03-22T02:41:55.125Z,45.52
2019-03-22T02:42:55.082Z,45.04
2019-03-22T02:43:55.058Z,44.28
2019-03-22T02:44:55.003Z,46.85
2019-03-22T02:45:54.964Z,46.37
2019-03-22T02:46:54.922Z,47.89
2019-03-22T02:47:54.882Z,46.28
2019-03-22T02:48:54.838Z,45.71
2019-03-22T02:49:54.800Z,44.85
2019-03-22T02:50:56.282Z,45.42
2019-03-22T02:51:54.715Z,45.33
2019-03-22T02:52:54.677Z,45.71
2019-03-22T02:53:54.634Z,44.67
2019-03-22T02:54:54.595Z,45.42
2019-03-22T02:55:54.724Z,45.52
2019-03-22T02:56:54.515Z,46.28
2019-03-22T02:57:54.477Z,47.04
2019-03-22T02:58:54.483Z,48.56
2019-03-22T02:59:54.390Z,48.85
2019-03-22T03:00:54.366Z,48.94
2019-03-22T03:01:54.313Z,49.10
2019-03-22T03:02:54.265Z,50.62
2019-03-22T03:03:54.233Z,51.70
2019-03-22T03:04:54.195Z,52.55
2019-03-22T03:05:54.146Z,52.43
2019-03-22T03:06:54.101Z,52.05
2019-03-22T03:07:54.066Z,51.39
2019-03-22T03:08:54.029Z,50.15
2019-03-22T03:09:53.983Z,50.43
2019-03-22T03:10:53.942Z,49.96
2019-03-22T03:11:53.898Z,50.05
2019-03-22T03:12:53.861Z,51.01
2019-03-22T03:13:53.822Z,51.86
2019-03-22T03:14:53.778Z,50.62
2019-03-22T03:15:53.750Z,49.68
2019-03-22T03:16:53.698Z,49.01
2019-03-22T03:17:53.659Z,48.91
2019-03-22T03:18:53.625Z,50.15
2019-03-22T03:19:53.573Z,51.10
2019-03-22T03:20:53.549Z,51.57
2019-03-22T03:21:53.495Z,52.43
2019-03-22T03:22:53.455Z,51.48
2019-03-22T03:23:53.407Z,53.00
2019-03-22T03:24:53.368Z,52.72
2019-03-22T03:25:53.331Z,51.86
2019-03-22T03:26:53.283Z,51.95
2019-03-22T03:27:53.249Z,51.86
2019-03-22T03:28:53.207Z,52.62
2019-03-22T03:29:53.177Z,53.95
2019-03-22T03:43:52.227Z,58.70
2019-03-22T03:44:52.152Z,59.65
2019-03-22T03:45:52.099Z,60.98
2019-03-22T03:46:52.057Z,62.12
2019-03-22T03:47:52.016Z,62.59
2019-03-22T03:48:51.972Z,62.12
2019-03-22T03:49:51.923Z,61.65
2019-03-22T03:50:51.881Z,61.36
2019-03-22T03:51:51.839Z,61.17
2019-03-22T03:52:51.794Z,61.83
2019-03-22T03:53:51.756Z,62.21
2019-03-22T03:54:51.713Z,61.55
2019-03-22T03:55:51.679Z,61.26
2019-03-22T03:56:51.625Z,61.17
2019-03-22T03:57:51.590Z,61.45
2019-03-22T03:58:52.896Z,63.73
2019-03-22T03:59:51.503Z,64.97
2019-03-22T04:00:51.463Z,65.16
2019-03-22T04:01:51.421Z,64.97
2019-03-22T04:02:51.377Z,65.25
2019-03-22T04:03:51.336Z,64.78
2019-03-22T04:04:51.311Z,64.87
2019-03-22T04:05:51.250Z,64.59
2019-03-22T04:06:51.209Z,64.30
2019-03-22T04:07:51.168Z,63.92
2019-03-22T04:08:51.125Z,63.54
2019-03-22T04:09:51.089Z,62.88
2019-03-22T04:10:51.045Z,62.69
2019-03-22T04:11:51.008Z,64.21
2019-03-22T04:12:50.968Z,65.06
2019-03-22T04:13:50.919Z,66.96
2019-03-22T04:14:50.878Z,66.20
2019-03-22T04:15:50.835Z,65.63
2019-03-22T04:16:50.794Z,65.16
2019-03-22T04:17:50.757Z,64.30
2019-03-22T04:18:50.715Z,64.11
2019-03-22T04:19:50.671Z,63.17
2019-03-22T04:20:50.631Z,64.02
2019-03-22T04:21:50.639Z,63.64
2019-03-22T04:22:50.554Z,64.11
2019-03-22T04:23:50.508Z,64.30
2019-03-22T04:24:50.472Z,63.83
2019-03-22T04:25:50.484Z,64.21
2019-03-22T04:26:50.383Z,64.78
2019-03-22T04:27:50.338Z,64.97
2019-03-22T04:28:50.300Z,65.16
2019-03-22T04:29:50.261Z,66.01
2019-03-22T04:30:50.258Z,65.16
2019-03-22T04:31:50.178Z,63.64
2019-03-22T04:32:50.152Z,62.88
2019-03-22T04:33:50.091Z,62.12
2019-03-22T04:34:50.052Z,62.02
2019-03-22T04:35:50.013Z,61.17
2019-03-22T04:36:49.972Z,61.45
2019-03-22T04:37:49.926Z,60.13
2019-03-22T04:38:49.885Z,61.26
2019-03-22T04:39:49.843Z,61.36
2019-03-22T04:40:49.803Z,62.02
2019-03-22T04:41:49.768Z,63.64
2019-03-22T04:42:49.722Z,65.16
2019-03-22T04:43:49.681Z,66.01
2019-03-22T04:44:49.641Z,66.49
2019-03-22T04:45:49.596Z,65.82
2019-03-22T04:46:49.557Z,66.58
2019-03-22T04:47:49.513Z,66.30
2019-03-22T04:48:49.471Z,66.96
2019-03-22T04:49:49.435Z,67.15
2019-03-22T04:50:49.395Z,67.15
2019-03-22T04:51:49.349Z,67.34
2019-03-22T04:52:49.305Z,67.34
2019-03-22T04:53:49.271Z,67.44
2019-03-22T04:54:49.228Z,67.53
2019-03-22T04:55:49.188Z,67.91
2019-03-22T04:56:49.146Z,67.44
2019-03-22T04:57:49.101Z,67.53
2019-03-22T04:58:49.061Z,67.53
2019-03-22T04:59:49.022Z,67.53
2019-03-22T05:00:48.976Z,68.01
2019-03-22T05:01:48.940Z,68.58
2019-03-22T05:02:48.956Z,67.25
2019-03-22T05:03:48.855Z,67.25
2019-03-22T05:04:48.817Z,66.67
2019-03-22T05:05:48.770Z,66.30
2019-03-22T05:06:48.731Z,66.01
2019-03-22T05:07:48.692Z,65.73
2019-03-22T05:08:48.651Z,65.82
2019-03-22T05:09:48.608Z,65.63
2019-03-22T05:10:48.567Z,66.58
2019-03-22T05:11:48.524Z,67.63
2019-03-22T05:12:48.481Z,66.77
2019-03-22T05:13:48.448Z,66.39
2019-03-22T05:14:48.402Z,66.20
2019-03-22T05:15:48.362Z,66.30
2019-03-22T05:16:48.320Z,66.20
2019-03-22T05:17:48.275Z,65.06
2019-03-22T05:18:48.237Z,64.49
2019-03-22T05:19:48.193Z,64.78
2019-03-22T05:20:48.150Z,64.87
2019-03-22T05:21:48.115Z,65.44
2019-03-22T05:22:48.072Z,65.16
2019-03-22T05:23:48.028Z,65.25
2019-03-22T05:24:47.986Z,65.92
2019-03-22T05:25:47.950Z,65.16
2019-03-22T05:26:47.907Z,65.82
2019-03-22T05:27:47.865Z,67.44
2019-03-22T05:28:47.827Z,67.63
2019-03-22T05:29:47.780Z,69.71
2019-03-22T05:30:47.740Z,68.86
2019-03-22T05:31:47.701Z,68.19
2019-03-22T05:32:47.655Z,67.21
2019-03-22T05:33:47.620Z,68.48
2019-03-22T05:34:47.578Z,69.24
2019-03-22T05:35:47.535Z,68.16
2019-03-22T05:36:47.496Z,68.29
2019-03-22T05:37:47.450Z,68.26
2019-03-22T05:38:47.412Z,68.19
2019-03-22T05:39:47.373Z,69.87
2019-03-22T05:40:47.330Z,69.71
2019-03-22T05:41:47.287Z,70.44
2019-03-22T05:42:47.244Z,69.68
2019-03-22T05:43:47.203Z,68.86
2019-03-22T05:44:47.161Z,68.96
2019-03-22T05:45:47.125Z,69.53
2019-03-22T05:46:48.921Z,69.81
2019-03-22T05:47:47.043Z,70.57
2019-03-22T05:48:47.014Z,70.48
2019-03-22T05:49:46.955Z,72.56
2019-03-22T05:50:46.967Z,72.38
2019-03-22T05:51:46.873Z,72.38
2019-03-22T05:52:46.829Z,72.47
2019-03-22T05:53:46.795Z,71.62
2019-03-22T05:54:46.751Z,72.00
2019-03-22T05:55:46.707Z,71.62
2019-03-22T05:56:46.666Z,71.04
2019-03-22T05:57:46.630Z,71.04
2019-03-22T05:58:46.588Z,71.04
2019-03-22T05:59:46.546Z,71.43
2019-03-22T06:00:46.505Z,71.23
2019-03-22T06:01:46.460Z,70.38
2019-03-22T06:02:46.420Z,71.04
2019-03-22T06:03:46.379Z,71.14
2019-03-22T06:04:46.334Z,71.04
2019-03-22T06:05:46.298Z,70.86
2019-03-22T06:06:46.260Z,70.57
2019-03-22T06:07:46.217Z,69.71
2019-03-22T06:08:46.172Z,69.71
2019-03-22T06:09:46.135Z,70.76
2019-03-22T06:10:46.088Z,70.48
2019-03-22T06:11:46.049Z,70.86
2019-03-22T06:12:46.011Z,72.19
2019-03-22T06:13:45.963Z,72.00
2019-03-22T06:14:45.924Z,71.81
2019-03-22T06:15:45.882Z,71.81
2019-03-22T06:16:45.838Z,71.71
2019-03-22T06:17:51.514Z,72.51
2019-03-22T06:18:45.762Z,71.75
2019-03-22T06:19:45.719Z,72.41
2019-03-22T06:20:45.681Z,72.79
2019-03-22T06:21:45.634Z,73.65
2019-03-22T06:22:45.596Z,74.69
2019-03-22T06:23:45.554Z,74.12
2019-03-22T06:24:45.511Z,73.74
2019-03-22T06:25:45.475Z,74.12
2019-03-22T06:26:45.436Z,73.65
2019-03-22T06:27:45.390Z,74.41
2019-03-22T06:28:45.347Z,74.31
2019-03-22T06:29:53.556Z,74.31
2019-03-22T06:30:47.816Z,73.88
2019-03-22T06:31:45.228Z,74.12
2019-03-22T06:32:45.190Z,73.69
2019-03-22T06:33:45.143Z,74.35
2019-03-22T06:34:45.104Z,74.92
2019-03-22T06:35:45.062Z,74.16
2019-03-22T06:36:45.021Z,73.40
2019-03-22T06:37:44.987Z,73.30
2019-03-22T06:38:44.943Z,74.92
2019-03-22T06:39:44.903Z,75.11
2019-03-22T06:40:44.865Z,76.73
2019-03-22T06:41:44.817Z,77.49
2019-03-22T06:42:44.778Z,79.20
2019-03-22T06:43:44.741Z,81.48
2019-03-22T06:44:44.700Z,81.10
2019-03-22T06:45:44.653Z,81.29
2019-03-22T06:46:44.616Z,81.01
2019-03-22T06:47:44.574Z,81.67
2019-03-22T06:48:44.532Z,82.62
2019-03-22T06:49:44.544Z,82.91
2019-03-22T06:50:44.456Z,82.91
2019-03-22T06:51:44.414Z,83.19
2019-03-22T06:52:44.387Z,81.24
2019-03-22T06:53:44.332Z,79.33
2019-03-22T06:54:44.291Z,74.44
2019-03-22T06:55:44.250Z,71.34
2019-03-22T06:56:44.209Z,69.44
2019-03-22T06:57:44.173Z,67.60
2019-03-22T06:58:44.132Z,67.60
2019-03-22T06:59:44.096Z,67.22
2019-03-22T07:00:44.046Z,66.84
2019-03-22T07:01:44.017Z,65.60
2019-03-22T07:02:43.971Z,64.08
2019-03-22T07:03:43.929Z,63.79
2019-03-22T07:04:43.891Z,62.59
2019-03-22T07:05:43.845Z,63.23
2019-03-22T07:06:43.807Z,63.17
2019-03-22T07:07:43.768Z,62.97
2019-03-22T07:08:43.725Z,64.59
2019-03-22T07:09:43.689Z,65.25
2019-03-22T07:10:43.647Z,61.64
2019-03-22T07:11:43.608Z,60.02
2019-03-22T07:12:43.568Z,62.12
2019-03-22T07:13:43.523Z,60.31
2019-03-22T07:14:43.485Z,61.45
2019-03-22T07:15:43.446Z,63.35
2019-03-22T07:16:43.408Z,65.54
2019-03-22T07:17:43.363Z,64.69
2019-03-22T07:18:43.325Z,65.35
2019-03-22T07:19:43.287Z,66.11
2019-03-22T07:20:43.247Z,65.29
2019-03-22T07:21:43.208Z,65.77
2019-03-22T07:22:43.166Z,70.43
2019-03-22T07:23:43.127Z,70.62
2019-03-22T07:24:43.087Z,69.10
2019-03-22T07:25:43.043Z,69.10
2019-03-22T07:26:43.012Z,68.05
2019-03-22T07:27:42.964Z,67.38
2019-03-22T07:28:42.925Z,67.19
2019-03-22T07:29:42.889Z,67.86
2019-03-22T07:30:42.849Z,69.38
2019-03-22T07:31:42.804Z,70.14
2019-03-22T07:32:42.763Z,71.86
2019-03-22T07:33:42.729Z,77.95
2019-03-22T07:34:42.687Z,78.52
2019-03-22T07:35:42.648Z,79.19
2019-03-22T07:36:42.612Z,77.47
2019-03-22T07:37:42.566Z,74.84
2019-03-22T07:38:42.527Z,80.18
2019-03-22T07:39:42.487Z,83.03
2019-03-22T07:40:42.445Z,81.60
2019-03-22T07:41:42.411Z,80.08
2019-03-22T07:42:42.372Z,78.85
2019-03-22T07:43:42.330Z,78.56
2019-03-22T07:44:42.293Z,78.31
2019-03-22T07:45:42.248Z,75.32
2019-03-22T07:46:42.213Z,72.37
2019-03-22T07:47:42.172Z,70.88
2019-03-22T07:48:42.135Z,72.12
2019-03-22T07:49:42.090Z,86.79
2019-03-22T07:50:42.055Z,86.69
2019-03-22T07:51:42.013Z,92.32
2019-03-22T07:52:41.972Z,94.22
2019-03-22T07:53:41.939Z,97.36
2019-03-22T07:54:41.898Z,98.08
2019-03-22T07:55:41.862Z,96.84
2019-03-22T07:56:41.820Z,95.41
2019-03-22T07:57:41.776Z,99.99
2019-03-22T07:58:41.740Z,98.18
2019-03-22T07:59:41.700Z,98.65
2019-03-22T08:00:41.661Z,99.99
2019-03-22T08:01:41.625Z,99.99
2019-03-22T08:02:41.585Z,96.41
2019-03-22T08:03:41.547Z,95.37
2019-03-22T08:04:41.502Z,96.98
2019-03-22T08:05:50.870Z,97.46
2019-03-22T08:06:41.432Z,99.18
2019-03-22T08:07:41.390Z,99.99
2019-03-22T08:08:41.354Z,99.99
2019-03-22T08:09:41.368Z,99.99
2019-03-22T08:10:41.280Z,99.99
2019-03-22T08:11:41.244Z,99.99
2019-03-22T08:12:41.198Z,99.99
2019-03-22T08:13:41.158Z,99.99
2019-03-22T08:14:41.135Z,99.99
2019-03-22T08:15:41.093Z,99.99
2019-03-22T08:16:41.041Z,99.99
2019-03-22T08:17:41.002Z,99.99
2019-03-22T08:18:40.966Z,99.99
2019-03-22T08:19:40.927Z,99.99
2019-03-22T08:20:40.888Z,99.99
2019-03-22T08:21:40.848Z,99.99
2019-03-22T08:22:40.808Z,99.99
2019-03-22T08:23:40.768Z,99.99
2019-03-22T08:24:40.731Z,99.99
2019-03-22T08:25:43.295Z,99.99
2019-03-22T08:26:40.661Z,99.99
2019-03-22T08:27:40.631Z,99.99
2019-03-22T08:28:40.583Z,99.99
2019-03-22T08:29:40.540Z,99.99
2019-03-22T08:30:43.241Z,99.99
2019-03-22T08:31:40.500Z,99.99
2019-03-22T08:32:40.425Z,99.99
2019-03-22T08:33:40.389Z,99.99
2019-03-22T08:34:40.353Z,99.99
2019-03-22T08:35:40.323Z,99.37
2019-03-22T08:36:40.273Z,97.66
2019-03-22T08:37:51.781Z,96.66
2019-03-22T08:38:40.201Z,96.66
2019-03-22T08:39:40.167Z,95.70
2019-03-22T08:40:40.122Z,93.88
2019-03-22T08:41:40.119Z,98.75
2019-03-22T08:42:40.087Z,99.80
2019-03-22T08:43:40.007Z,99.99
2019-03-22T08:44:39.970Z,99.99
2019-03-22T08:45:39.940Z,99.99
2019-03-22T08:46:39.933Z,99.80
2019-03-22T08:47:39.861Z,98.85
2019-03-22T08:48:39.885Z,99.08
2019-03-22T08:49:39.972Z,99.99
2019-03-22T08:50:39.739Z,99.99
2019-03-22T08:51:39.736Z,99.99
2019-03-22T08:52:39.669Z,99.99
2019-03-22T08:53:39.628Z,99.99
2019-03-22T08:54:39.631Z,99.99
2019-03-22T08:55:39.554Z,99.99
2019-03-22T08:56:39.522Z,99.99
2019-03-22T08:57:39.487Z,99.99
2019-03-22T08:58:39.545Z,99.99
2019-03-22T08:59:39.424Z,99.99
2019-03-22T09:00:39.948Z,99.99
2019-03-22T09:01:39.330Z,99.57
2019-03-22T09:02:39.289Z,97.13
2019-03-22T09:03:39.266Z,94.84
2019-03-22T09:04:39.221Z,93.31
2019-03-22T09:05:39.179Z,94.70
2019-03-22T09:06:39.143Z,97.75
2019-03-22T09:07:39.123Z,99.99
2019-03-22T09:08:39.066Z,99.99
2019-03-22T09:09:41.725Z,99.99
2019-03-22T09:10:39.045Z,99.99
2019-03-22T09:11:38.956Z,99.99
2019-03-22T09:12:38.919Z,99.99
2019-03-22T09:13:38.886Z,99.99
2019-03-22T09:14:38.852Z,99.99
2019-03-22T09:15:42.102Z,99.99
2019-03-22T09:16:38.769Z,94.89
2019-03-22T09:17:38.763Z,92.02
2019-03-22T09:18:38.742Z,95.12
2019-03-22T09:19:38.659Z,98.66
2019-03-22T09:20:38.620Z,99.04
2019-03-22T09:21:38.581Z,98.47
2019-03-22T09:22:38.572Z,98.66
2019-03-22T09:23:38.523Z,98.23
2019-03-22T09:24:39.444Z,98.18
2019-03-22T09:25:38.450Z,97.28
2019-03-22T09:26:47.435Z,94.70
2019-03-22T09:27:38.377Z,94.65
2019-03-22T09:28:38.321Z,93.74
2019-03-22T09:29:38.287Z,94.55
2019-03-22T09:30:38.258Z,93.79
2019-03-22T09:31:38.215Z,96.08
2019-03-22T09:32:38.219Z,96.37
2019-03-22T09:33:38.137Z,97.61
2019-03-22T09:34:38.126Z,96.94
2019-03-22T09:35:38.065Z,95.03
2019-03-22T09:36:38.026Z,95.98
2019-03-22T09:37:37.992Z,96.66
2019-03-22T09:38:37.990Z,94.07
2019-03-22T09:39:37.920Z,93.12
2019-03-22T09:40:37.889Z,90.16
2019-03-22T09:41:37.845Z,93.02
2019-03-22T09:42:37.823Z,97.04
2019-03-22T09:43:37.775Z,94.12
2019-03-22T09:57:49.527Z,93.16
2019-03-22T09:58:48.505Z,91.82
2019-03-22T09:59:48.442Z,90.48
2019-03-22T10:00:48.908Z,89.90
2019-03-22T10:01:48.355Z,95.03
2019-03-22T10:02:48.349Z,98.19
2019-03-22T10:03:48.279Z,98.38
2019-03-22T10:04:48.283Z,98.66
2019-03-22T10:05:48.213Z,98.62
2019-03-22T10:06:48.167Z,97.56
2019-03-22T10:07:50.026Z,96.32
2019-03-22T10:08:48.100Z,98.62
2019-03-22T10:09:48.103Z,98.19
2019-03-22T10:10:48.011Z,97.61
2019-03-22T10:11:47.969Z,99.05
2019-03-22T10:12:47.981Z,97.90
2019-03-22T10:13:48.477Z,97.42
2019-03-22T10:14:47.861Z,97.52
2019-03-22T10:15:47.877Z,95.79
2019-03-22T10:16:47.949Z,95.98
2019-03-22T10:17:47.751Z,99.24
2019-03-22T10:18:47.726Z,99.99
2019-03-22T10:19:47.677Z,99.99
2019-03-22T10:20:47.646Z,99.99
2019-03-22T10:21:47.600Z,99.99
2019-03-22T10:22:47.566Z,99.99
2019-03-22T10:23:47.569Z,99.99
2019-03-22T10:24:47.527Z,99.99
2019-03-22T10:25:47.484Z,99.99
2019-03-22T10:26:47.457Z,99.99
2019-03-22T10:27:47.386Z,99.99
2019-03-22T10:28:47.348Z,99.99
2019-03-22T10:29:47.318Z,99.99
2019-03-22T10:30:47.271Z,99.99
2019-03-22T10:31:47.243Z,99.99
2019-03-22T10:32:47.213Z,99.99
2019-03-22T10:33:47.163Z,99.99
2019-03-22T10:34:47.127Z,99.99
2019-03-22T10:35:47.110Z,99.99
2019-03-22T10:36:47.057Z,99.99
2019-03-22T10:37:47.052Z,99.99
2019-03-22T10:38:47.021Z,99.99
2019-03-22T10:39:46.953Z,99.99
2019-03-22T10:40:46.915Z,99.99
2019-03-22T10:41:46.916Z,99.99
2019-03-22T10:42:46.846Z,99.99
2019-03-22T10:43:46.803Z,99.99
2019-03-22T10:44:46.764Z,99.99
2019-03-22T10:45:46.728Z,99.99
2019-03-22T10:46:46.766Z,99.99
2019-03-22T10:47:46.685Z,99.99
2019-03-22T10:48:46.636Z,99.99
2019-03-22T10:49:46.671Z,99.99
2019-03-22T10:50:46.603Z,99.99
2019-03-22T10:51:56.014Z,99.99
2019-03-22T10:52:48.191Z,99.99
2019-03-22T10:53:46.442Z,99.99
2019-03-22T10:54:46.480Z,99.99
2019-03-22T10:55:46.373Z,99.99
2019-03-22T10:56:46.331Z,99.99
2019-03-22T10:57:46.297Z,99.99
2019-03-22T10:58:46.280Z,99.29
2019-03-22T10:59:46.230Z,99.99
2019-03-22T11:00:46.195Z,99.38
2019-03-22T11:01:52.419Z,96.70
2019-03-22T11:02:46.120Z,95.89
2019-03-22T11:03:46.180Z,97.95
2019-03-22T11:04:46.045Z,98.57
2019-03-22T11:05:46.012Z,95.41
2019-03-22T11:06:45.978Z,95.12
2019-03-22T11:07:45.945Z,96.84
2019-03-22T11:08:45.908Z,95.31
2019-03-22T11:09:45.870Z,95.51
2019-03-22T11:10:45.835Z,94.17
2019-03-22T11:11:45.798Z,94.07
2019-03-22T11:12:45.765Z,93.54
2019-03-22T11:13:45.730Z,93.78
2019-03-22T11:14:45.830Z,95.41
2019-03-22T11:15:48.677Z,75.96
2019-03-22T11:16:45.618Z,60.86
2019-03-22T11:17:45.585Z,57.03
2019-03-22T11:18:45.557Z,55.11
2019-03-22T11:19:45.518Z,54.63
2019-03-22T11:20:45.810Z,54.05
2019-03-22T11:21:45.449Z,54.08
2019-03-22T11:22:45.410Z,52.55
2019-03-22T11:23:45.371Z,51.97
2019-03-22T11:24:45.334Z,51.97
2019-03-22T11:25:45.324Z,52.36
2019-03-22T11:26:45.268Z,51.49
2019-03-22T11:27:45.235Z,50.05
2019-03-22T11:28:45.196Z,50.92
2019-03-22T11:29:45.164Z,51.87
2019-03-22T11:30:45.127Z,50.24
2019-03-22T11:31:45.100Z,51.20
2019-03-22T11:32:45.058Z,50.27
2019-03-22T11:33:45.025Z,51.32
2019-03-22T11:34:45.007Z,51.97
2019-03-22T11:35:44.950Z,52.19
2019-03-22T11:36:44.914Z,50.94
2019-03-22T11:37:44.881Z,51.04
2019-03-22T11:38:44.849Z,50.75
2019-03-22T11:39:44.815Z,51.35
2019-03-22T11:40:46.794Z,50.96
2019-03-22T11:41:44.744Z,49.79
2019-03-22T11:42:44.706Z,49.12
2019-03-22T11:43:44.672Z,48.93
2019-03-22T11:44:44.643Z,49.88
2019-03-22T11:45:44.610Z,50.17
2019-03-22T11:46:44.567Z,51.32
2019-03-22T11:47:44.536Z,52.95
2019-03-22T11:48:44.496Z,51.61
2019-03-22T11:49:44.471Z,50.87
2019-03-22T11:50:44.431Z,50.39
2019-03-22T11:51:44.401Z,51.25
2019-03-22T11:52:44.363Z,49.82
2019-03-22T11:53:44.329Z,49.82
2019-03-22T11:54:44.290Z,51.16
2019-03-22T11:55:44.256Z,49.72
2019-03-22T11:56:44.223Z,49.15
2019-03-22T11:57:44.189Z,49.43
2019-03-22T11:58:44.154Z,49.82
2019-03-22T11:59:44.123Z,51.45
2019-03-22T12:00:44.082Z,52.43
2019-03-22T12:01:44.053Z,51.37
2019-03-22T12:02:44.018Z,50.39
2019-03-22T12:03:43.986Z,50.42
2019-03-22T12:04:43.951Z,50.23
2019-03-22T12:05:43.916Z,50.80
2019-03-22T12:06:43.880Z,50.03
2019-03-22T12:07:43.843Z,50.03
2019-03-22T12:08:43.809Z,50.32
2019-03-22T12:09:43.778Z,49.36
2019-03-22T12:10:43.744Z,50.51
2019-03-22T12:11:43.712Z,51.28
2019-03-22T12:12:43.678Z,51.18
2019-03-22T12:13:43.642Z,48.69
2019-03-22T12:14:43.606Z,49.07
2019-03-22T12:15:43.572Z,50.23
2019-03-22T12:16:43.541Z,51.37
2019-03-22T12:17:43.505Z,51.95
2019-03-22T12:18:43.470Z,52.43
2019-03-22T12:19:43.434Z,51.57
2019-03-22T12:20:43.400Z,50.90
2019-03-22T12:21:43.367Z,48.69
2019-03-22T12:22:43.336Z,48.79
2019-03-22T12:23:43.311Z,48.49
2019-03-22T12:24:43.268Z,49.55
2019-03-22T12:25:43.234Z,50.23
2019-03-22T12:26:43.198Z,49.36
2019-03-22T12:27:43.163Z,48.30
2019-03-22T12:28:43.129Z,49.26
2019-03-22T12:29:43.095Z,51.18
2019-03-22T12:30:43.064Z,49.93
2019-03-22T12:31:51.697Z,50.23
2019-03-22T12:33:47.449Z,50.15
2019-03-22T12:34:47.391Z,48.81
2019-03-22T12:35:47.354Z,49.19
2019-03-22T12:36:47.325Z,50.34
2019-03-22T12:37:47.291Z,50.44
2019-03-22T12:38:47.256Z,49.48
2019-03-22T12:39:47.229Z,47.75
2019-03-22T12:40:47.186Z,48.81
2019-03-22T12:41:47.156Z,49.29
2019-03-22T12:42:47.124Z,49.10
2019-03-22T12:43:47.096Z,48.04
2019-03-22T12:44:47.059Z,48.43
2019-03-22T12:45:47.021Z,49.48
2019-03-22T12:46:49.105Z,50.15
2019-03-22T12:47:46.949Z,48.43
2019-03-22T12:48:46.916Z,47.85
2019-03-22T12:49:46.884Z,47.46
2019-03-22T12:50:46.852Z,49.57
2019-03-22T12:51:46.830Z,51.02
2019-03-22T12:52:46.787Z,50.34
2019-03-22T12:53:46.752Z,49.00
2019-03-22T12:54:46.721Z,48.90
2019-03-22T12:55:48.626Z,50.27
2019-03-22T12:56:46.669Z,50.27
2019-03-22T12:57:46.627Z,48.54
2019-03-22T12:58:46.582Z,48.54
2019-03-22T12:59:46.548Z,47.97
2019-03-22T13:00:46.516Z,47.30
2019-03-22T13:01:46.485Z,47.77
2019-03-22T13:02:46.449Z,47.39
2019-03-22T13:03:46.419Z,48.35
2019-03-22T13:04:46.385Z,47.87
2019-03-22T13:05:46.350Z,47.00
2019-03-22T13:06:46.318Z,46.53
2019-03-22T13:07:46.282Z,47.68
2019-03-22T13:08:46.247Z,47.58
2019-03-22T13:09:46.214Z,47.58
2019-03-22T13:10:46.182Z,48.07
2019-03-22T13:11:46.152Z,47.97
2019-03-22T13:12:46.112Z,47.00
2019-03-22T13:13:46.082Z,47.00
2019-03-22T13:14:46.049Z,47.46
2019-03-22T13:15:46.018Z,46.79
2019-03-22T13:16:45.984Z,47.20
2019-03-22T13:17:45.952Z,48.07
2019-03-22T13:18:50.088Z,47.68
2019-03-22T13:19:45.879Z,47.30
2019-03-22T13:20:45.847Z,47.31